Time;durP1;ratioP1;P1;durP2;ratioP2;P2;SDS_P1;SDS_P2;PMS_P1;PMS_P2;Temp;Humidity;BMP_temperature;BMP_pressure;BME280_temperature;BME280_humidity;BME280_pressure;Samples;Min_cycle;Max_cycle;Signal;HPM_P1;HPM_P2
2023/01/19 00:00:39;;;;;;;;;;;;;;;19.94;47.52;99739.97;4897033;29;4205;-69
2023/01/19 00:03:14;;;;;;;;;;;;;;;19.95;47.48;99749.31;4898897;29;4041;-69
2023/01/19 00:05:42;;;;;;;;;;;;;;;19.94;47.49;99751.47;4900119;29;4310;-69
2023/01/19 00:08:14;;;;;;;;;;;;;;;19.94;47.52;99745.72;4902175;29;4378;-69
2023/01/19 00:10:41;;;;;;;;;;;;;;;19.94;47.46;99757.22;4899494;29;4180;-68
2023/01/19 00:13:07;;;;;;;;;;;;;;;19.94;47.48;99762.94;4899843;29;4145;-68
2023/01/19 00:15:34;;;;;;;;;;;;;;;19.93;47.43;99758.63;4898968;29;4251;-68
2023/01/19 00:18:00;;;;;;;;;;;;;;;19.92;47.44;99762.88;4902101;29;4263;-68
2023/01/19 00:20:26;;;;;;;;;;;;;;;19.92;47.49;99762.88;4895150;29;5360;-68
2023/01/19 00:22:53;;;;;;;;;;;;;;;19.91;47.45;99757.84;4894237;29;4174;-68
2023/01/19 00:25:19;;;;;;;;;;;;;;;19.91;47.50;99761.44;4897991;29;4525;-69
2023/01/19 00:27:48;;;;;;;;;;;;;;;19.91;47.34;99760.69;4900825;29;5412;-68
2023/01/19 00:30:14;;;;;;;;;;;;;;;19.90;47.42;99762.81;4902154;29;5358;-68
2023/01/19 00:32:41;;;;;;;;;;;;;;;19.91;47.53;99772.91;4900592;29;4166;-69
2023/01/19 00:35:07;;;;;;;;;;;;;;;19.91;47.45;99772.91;4901158;29;4427;-69
2023/01/19 00:37:33;;;;;;;;;;;;;;;19.92;47.49;99771.50;4902230;29;4183;-68
2023/01/19 00:40:00;;;;;;;;;;;;;;;19.92;47.38;99774.38;4900272;29;4233;-69
2023/01/19 00:42:47;;;;;;;;;;;;;;;19.92;47.48;99771.50;4898134;29;4217;-69
2023/01/19 00:45:14;;;;;;;;;;;;;;;19.92;47.50;99771.50;4897558;29;4301;-68
2023/01/19 00:47:40;;;;;;;;;;;;;;;19.91;47.43;99770.06;4900976;29;4326;-68
2023/01/19 00:50:07;;;;;;;;;;;;;;;19.92;47.42;99780.13;4899843;29;4215;-68
2023/01/19 00:52:33;;;;;;;;;;;;;;;19.91;47.32;99781.53;4899246;29;4355;-68
2023/01/19 00:54:59;;;;;;;;;;;;;;;19.91;47.49;99787.28;4899836;29;4639;-68
2023/01/19 00:57:27;;;;;;;;;;;;;;;19.91;47.62;99780.81;4900470;29;4211;-68
2023/01/19 00:59:53;;;;;;;;;;;;;;;19.89;47.36;99784.34;4900068;29;4154;-68
2023/01/19 01:02:20;;;;;;;;;;;;;;;19.90;47.40;99785.06;4898645;29;4165;-69
2023/01/19 01:04:46;;;;;;;;;;;;;;;19.90;47.37;99785.81;4894912;29;4233;-68
2023/01/19 01:07:13;;;;;;;;;;;;;;;19.90;47.34;99790.81;4900223;29;5177;-68
2023/01/19 01:09:39;;;;;;;;;;;;;;;19.90;47.47;99787.94;4898531;29;4125;-68
2023/01/19 01:12:05;;;;;;;;;;;;;;;19.91;47.25;99787.28;4897896;29;4542;-69
2023/01/19 01:14:32;;;;;;;;;;;;;;;19.92;47.43;99788.75;4894094;29;5256;-68
2023/01/19 01:16:59;;;;;;;;;;;;;;;19.92;47.51;99777.25;4900485;29;4187;-68
2023/01/19 01:19:25;;;;;;;;;;;;;;;19.92;47.49;99788.00;4897988;29;4108;-68
2023/01/19 01:21:52;;;;;;;;;;;;;;;19.92;47.51;99794.50;4895095;29;3909;-68
2023/01/19 01:24:19;;;;;;;;;;;;;;;19.91;47.55;99795.91;4898263;29;4040;-68
2023/01/19 01:26:45;;;;;;;;;;;;;;;19.89;47.54;99804.47;4895309;29;4146;-68
2023/01/19 01:29:12;;;;;;;;;;;;;;;19.90;47.38;99803.03;4892128;29;4216;-68
2023/01/19 01:31:38;;;;;;;;;;;;;;;19.88;47.56;99805.84;4892265;29;4108;-68
2023/01/19 01:34:05;;;;;;;;;;;;;;;19.89;47.56;99813.06;4885678;29;4537;-69
2023/01/19 01:36:32;;;;;;;;;;;;;;;19.89;47.49;99813.06;4897458;29;4385;-69
2023/01/19 01:38:59;;;;;;;;;;;;;;;19.89;47.58;99810.19;4895421;29;4165;-68
2023/01/19 01:41:26;;;;;;;;;;;;;;;19.88;47.37;99806.59;4894981;29;6254;-69
2023/01/19 01:43:55;;;;;;;;;;;;;;;19.88;47.41;99800.84;4896004;29;4258;-69
2023/01/19 01:46:21;;;;;;;;;;;;;;;19.89;47.50;99801.59;4897294;29;4476;-69
2023/01/19 01:48:54;;;;;;;;;;;;;;;19.90;47.47;99810.94;4894745;29;4189;-68
2023/01/19 01:51:23;;;;;;;;;;;;;;;19.90;47.42;99805.91;4900442;29;5256;-68
2023/01/19 01:54:10;;;;;;;;;;;;;;;19.90;47.52;99808.78;4897434;29;4128;-68
2023/01/19 01:56:37;;;;;;;;;;;;;;;19.89;47.42;99810.19;4897491;29;4073;-69
2023/01/19 01:59:05;;;;;;;;;;;;;;;19.87;47.53;99810.13;4896916;29;4265;-69
2023/01/19 02:04:16;;;;;;;;;;;;;;;19.87;47.43;99798.66;4898859;29;4465;-69
2023/01/19 02:14:57;;;;;;;;;;;;;;;19.87;47.54;99810.13;4895151;29;4140;-69
2023/01/19 02:17:24;;;;;;;;;;;;;;;19.88;47.62;99800.09;4899203;29;4200;-68
2023/01/19 02:31:49;;;;;;;;;;;;;;;19.88;47.61;99788.63;4878238;29;4860;-68
2023/01/19 02:34:16;;;;;;;;;;;;;;;19.87;47.65;99787.16;4887599;29;4434;-69
2023/01/19 02:36:49;;;;;;;;;;;;;;;19.86;47.63;99791.44;4896232;29;4189;-69
2023/01/19 02:39:18;;;;;;;;;;;;;;;19.86;47.59;99792.16;4899849;29;5231;-68
2023/01/19 02:41:52;;;;;;;;;;;;;;;19.85;47.51;99795.72;4891298;29;4128;-68
2023/01/19 02:44:18;;;;;;;;;;;;;;;19.86;47.68;99792.16;4897732;29;4189;-69
2023/01/19 02:46:44;;;;;;;;;;;;;;;19.86;47.55;99797.19;4894814;29;4385;-68
2023/01/19 02:49:12;;;;;;;;;;;;;;;19.86;47.47;99797.19;4900131;29;4183;-69
2023/01/19 02:51:38;;;;;;;;;;;;;;;19.87;47.56;99802.25;4901697;29;4131;-68
2023/01/19 02:54:11;;;;;;;;;;;;;;;19.87;47.62;99798.66;4898916;29;4225;-69
2023/01/19 02:56:55;;;;;;;;;;;;;;;19.87;47.59;99805.13;4899953;29;4068;-68
2023/01/19 02:59:26;;;;;;;;;;;;;;;19.87;47.56;99801.53;4894881;29;4097;-69
2023/01/19 03:02:12;;;;;;;;;;;;;;;19.86;47.62;99802.94;4900060;29;4017;-68
2023/01/19 03:04:38;;;;;;;;;;;;;;;19.84;47.67;99797.84;4896350;29;4104;-68
2023/01/19 03:07:09;;;;;;;;;;;;;;;19.85;47.53;99810.78;4900502;29;4078;-68
2023/01/19 03:09:42;;;;;;;;;;;;;;;19.85;47.53;99810.78;4896754;29;4286;-69
2023/01/19 03:12:13;;;;;;;;;;;;;;;19.84;47.55;99805.75;4895301;29;4155;-69
2023/01/19 03:14:41;;;;;;;;;;;;;;;19.85;47.66;99804.31;4893233;29;5348;-68
2023/01/19 03:17:08;;;;;;;;;;;;;;;19.85;47.60;99801.44;4899107;29;4342;-68
2023/01/19 03:19:38;;;;;;;;;;;;;;;19.84;47.55;99805.75;4898981;29;5223;-69
2023/01/19 03:22:09;;;;;;;;;;;;;;;19.84;47.60;99805.75;4897152;29;4112;-69
2023/01/19 03:24:36;;;;;;;;;;;;;;;19.85;47.70;99801.44;4897780;29;5319;-69
2023/01/19 03:27:05;;;;;;;;;;;;;;;19.85;47.62;99804.31;4895957;29;4080;-68
2023/01/19 03:29:33;;;;;;;;;;;;;;;19.86;47.38;99809.41;4912555;29;4236;-68
2023/01/19 03:32:00;;;;;;;;;;;;;;;19.83;47.45;99804.25;4895844;29;4492;-68
2023/01/19 03:34:27;;;;;;;;;;;;;;;19.85;47.52;99812.94;4895826;29;4081;-68
2023/01/19 03:36:54;;;;;;;;;;;;;;;19.83;47.41;99805.00;4900561;29;4133;-68
2023/01/19 03:39:21;;;;;;;;;;;;;;;19.85;47.58;99807.19;4903235;29;4200;-68
2023/01/19 03:41:47;;;;;;;;;;;;;;;19.84;47.70;99805.75;4908192;29;4150;-68
2023/01/19 03:44:14;;;;;;;;;;;;;;;19.84;47.51;99812.22;4898053;29;4190;-69
2023/01/19 03:46:40;;;;;;;;;;;;;;;19.86;47.45;99802.94;4901585;29;5422;-69
2023/01/19 03:49:07;;;;;;;;;;;;;;;19.86;47.65;99815.16;4897113;29;5230;-69
2023/01/19 03:51:36;;;;;;;;;;;;;;;19.86;47.55;99797.19;4898808;29;5251;-68
2023/01/19 03:54:03;;;;;;;;;;;;;;;19.86;47.59;99806.53;4897748;29;4091;-70
2023/01/19 03:56:30;;;;;;;;;;;;;;;19.87;47.56;99801.53;4902337;29;4273;-70
2023/01/19 03:58:56;;;;;;;;;;;;;;;19.87;47.64;99813.00;4902872;29;5236;-70
2023/01/19 04:01:23;;;;;;;;;;;;;;;19.88;47.56;99808.72;4900061;29;4225;-68
2023/01/19 04:03:50;;;;;;;;;;;;;;;19.89;47.55;99807.34;4896745;29;4101;-70
2023/01/19 04:06:16;;;;;;;;;;;;;;;19.88;47.53;99812.34;4897447;29;4349;-70
2023/01/19 04:08:43;;;;;;;;;;;;;;;19.88;47.59;99811.59;4899872;29;4169;-70
2023/01/19 04:11:09;;;;;;;;;;;;;;;19.88;47.55;99806.59;4899625;29;4320;-68
2023/01/19 04:13:35;;;;;;;;;;;;;;;19.89;47.42;99807.34;4899062;29;4167;-69
2023/01/19 04:16:02;;;;;;;;;;;;;;;19.88;47.54;99800.09;4897672;29;4245;-70
2023/01/19 04:18:29;;;;;;;;;;;;;;;19.88;47.49;99808.72;4900318;29;4250;-70
2023/01/19 04:20:58;;;;;;;;;;;;;;;19.85;47.62;99812.94;4898201;29;5133;-70
2023/01/19 04:23:25;;;;;;;;;;;;;;;19.85;47.58;99815.81;4900513;29;4223;-70
2023/01/19 04:25:55;;;;;;;;;;;;;;;19.85;47.56;99813.66;4898831;29;4156;-70
2023/01/19 04:28:22;;;;;;;;;;;;;;;19.84;47.60;99817.97;4899224;29;6444;-70
2023/01/19 04:30:49;;;;;;;;;;;;;;;19.86;47.50;99811.56;4896808;29;4153;-70
2023/01/19 04:33:15;;;;;;;;;;;;;;;19.85;47.55;99816.53;4896424;29;4185;-70
2023/01/19 04:35:42;;;;;;;;;;;;;;;19.86;47.59;99814.44;4902764;29;4169;-70
2023/01/19 04:38:09;;;;;;;;;;;;;;;19.87;47.60;99818.75;4898074;29;4292;-70
2023/01/19 04:40:35;;;;;;;;;;;;;;;19.87;47.56;99810.13;4896858;29;4213;-69
2023/01/19 04:43:01;;;;;;;;;;;;;;;19.87;47.58;99813.75;4896606;29;4054;-70
2023/01/19 04:45:28;;;;;;;;;;;;;;;19.88;47.55;99800.84;4893663;29;6140;-70
2023/01/19 04:47:55;;;;;;;;;;;;;;;19.89;47.67;99807.34;4897436;29;4166;-70
2023/01/19 04:50:21;;;;;;;;;;;;;;;19.89;47.50;99813.06;4898586;29;4215;-70
2023/01/19 04:52:47;;;;;;;;;;;;;;;19.88;47.67;99811.59;4896198;29;4158;-70
2023/01/19 04:55:14;;;;;;;;;;;;;;;19.88;47.38;99811.59;4898990;29;4185;-70
2023/01/19 04:57:40;;;;;;;;;;;;;;;19.87;47.52;99807.25;4899774;29;5210;-70
2023/01/19 05:00:07;;;;;;;;;;;;;;;19.87;47.44;99804.38;4896417;29;5066;-70
2023/01/19 05:02:33;;;;;;;;;;;;;;;19.86;47.61;99815.16;4895731;29;4230;-70
2023/01/19 05:04:59;;;;;;;;;;;;;;;19.86;47.56;99817.31;4899220;29;4054;-69
2023/01/19 05:07:26;;;;;;;;;;;;;;;19.86;47.52;99820.19;4897271;29;4222;-69
2023/01/19 05:09:52;;;;;;;;;;;;;;;19.85;47.55;99819.41;4900511;29;4128;-70
2023/01/19 05:12:19;;;;;;;;;;;;;;;19.86;47.35;99811.56;4898722;29;4423;-70
2023/01/19 05:14:45;;;;;;;;;;;;;;;19.87;47.50;99818.75;4896449;29;4262;-70
2023/01/19 05:17:11;;;;;;;;;;;;;;;19.88;47.31;99828.84;4899403;29;5319;-70
2023/01/19 05:19:38;;;;;;;;;;;;;;;19.87;47.38;99827.38;4897243;29;5255;-69
2023/01/19 05:22:04;;;;;;;;;;;;;;;19.87;47.45;99828.09;4897183;29;4134;-70
2023/01/19 05:24:30;;;;;;;;;;;;;;;19.87;47.41;99833.13;4894432;29;4207;-69
2023/01/19 05:26:57;;;;;;;;;;;;;;;19.88;47.43;99843.94;4892256;29;4263;-69
2023/01/19 05:29:23;;;;;;;;;;;;;;;19.88;47.39;99835.34;4887899;29;4215;-69
2023/01/19 05:31:49;;;;;;;;;;;;;;;19.88;47.45;99841.06;4890759;29;4224;-70
2023/01/19 05:34:16;;;;;;;;;;;;;;;19.89;47.48;99836.06;4898222;29;4225;-69
2023/01/19 05:36:42;;;;;;;;;;;;;;;19.88;47.50;99846.06;4896179;29;4162;-69
2023/01/19 05:39:08;;;;;;;;;;;;;;;19.88;47.53;99841.06;4899865;29;4230;-70
2023/01/19 05:41:35;;;;;;;;;;;;;;;19.87;47.48;99850.34;4895827;29;4158;-70
2023/01/19 05:44:01;;;;;;;;;;;;;;;19.86;47.41;99838.13;4899726;29;4222;-69
2023/01/19 05:46:27;;;;;;;;;;;;;;;19.86;47.47;99840.28;4897340;29;4188;-69
2023/01/19 05:48:54;;;;;;;;;;;;;;;19.83;47.47;99838.72;4898642;29;5233;-70
2023/01/19 05:51:20;;;;;;;;;;;;;;;19.85;47.48;99841.66;4892581;29;4070;-70
2023/01/19 05:53:47;;;;;;;;;;;;;;;19.85;47.49;99841.66;4890085;29;4447;-70
2023/01/19 05:56:13;;;;;;;;;;;;;;;19.85;47.37;99838.78;4902268;29;4117;-70
2023/01/19 05:58:39;;;;;;;;;;;;;;;19.86;47.44;99846.03;4890362;29;4228;-70
2023/01/19 06:01:07;;;;;;;;;;;;;;;19.86;47.16;99849.63;4888242;29;4233;-70
2023/01/19 06:03:33;;;;;;;;;;;;;;;19.86;47.36;99838.13;4896718;29;4277;-69
2023/01/19 06:06:00;;;;;;;;;;;;;;;19.85;47.72;99858.91;4897495;29;4120;-70
2023/01/19 06:08:26;;;;;;;;;;;;;;;19.95;47.57;99861.38;4894060;29;4068;-70
2023/01/19 06:10:52;;;;;;;;;;;;;;;20.05;47.57;99862.44;4895725;29;4164;-68
2023/01/19 06:13:19;;;;;;;;;;;;;;;20.02;47.63;99875.28;4892661;29;4115;-68
2023/01/19 06:15:45;;;;;;;;;;;;;;;19.98;47.63;99866.53;4888751;29;4118;-68
2023/01/19 06:18:13;;;;;;;;;;;;;;;20.17;47.95;99867.09;4880820;29;5339;-71
2023/01/19 06:20:39;;;;;;;;;;;;;;;20.19;47.89;99867.16;4891458;29;4854;-79
2023/01/19 06:23:06;;;;;;;;;;;;;;;20.23;49.08;99868.03;4893805;29;4332;-83
2023/01/19 06:25:32;;;;;;;;;;;;;;;20.27;49.50;99873.16;4894114;29;4764;-74
2023/01/19 06:27:59;;;;;;;;;;;;;;;20.24;48.85;99868.75;4886883;29;4160;-81
2023/01/19 06:30:25;;;;;;;;;;;;;;;20.18;50.02;99877.19;4896645;29;4229;-73
2023/01/19 06:32:52;;;;;;;;;;;;;;;20.08;49.57;99878.31;4893461;29;4485;-76
2023/01/19 06:35:18;;;;;;;;;;;;;;;20.03;49.47;99879.59;4899039;29;4147;-75
2023/01/19 06:37:45;;;;;;;;;;;;;;;20.02;49.49;99880.25;4895705;29;4479;-75
2023/01/19 06:40:11;;;;;;;;;;;;;;;20.01;49.79;99888.16;4895337;29;5308;-76
2023/01/19 06:42:39;;;;;;;;;;;;;;;20.00;49.88;99875.22;4897398;29;4186;-75
2023/01/19 06:45:06;;;;;;;;;;;;;;;20.00;49.76;99878.09;4897698;29;4055;-75
2023/01/19 06:47:33;;;;;;;;;;;;;;;19.98;49.98;99872.28;4894196;29;4247;-76
2023/01/19 06:50:00;;;;;;;;;;;;;;;19.99;49.87;99873.72;4898943;29;4079;-77
2023/01/19 06:52:27;;;;;;;;;;;;;;;20.01;49.45;99876.66;4901522;29;4015;-74
2023/01/19 06:54:53;;;;;;;;;;;;;;;19.99;49.38;99885.22;4889282;29;4448;-71
2023/01/19 06:57:22;;;;;;;;;;;;;;;19.92;49.35;99891.44;4903946;29;4045;-73
2023/01/19 06:59:48;;;;;;;;;;;;;;;13.68;38.12;99884.72;4890591;29;5523;-70
2023/01/19 07:02:18;;;;;;;;;;;;;;;16.53;37.55;99885.94;4897883;29;4208;-69
2023/01/19 07:04:53;;;;;;;;;;;;;;;18.29;39.95;99882.00;4893029;29;4173;-69
2023/01/19 07:07:20;;;;;;;;;;;;;;;18.97;40.81;99881.72;4896955;29;4275;-70
2023/01/19 07:09:46;;;;;;;;;;;;;;;19.63;41.93;99891.22;4896158;29;4128;-70
2023/01/19 07:12:13;;;;;;;;;;;;;;;19.99;42.06;99890.97;4897475;29;5459;-74
2023/01/19 07:14:39;;;;;;;;;;;;;;;20.15;41.75;99890.03;4898867;29;4513;-70
2023/01/19 07:17:06;;;;;;;;;;;;;;;20.25;42.24;99901.84;4905298;29;4040;-71
2023/01/19 07:19:34;;;;;;;;;;;;;;;20.30;42.67;99903.44;4900444;29;4144;-71
2023/01/19 07:22:01;;;;;;;;;;;;;;;20.39;43.24;99902.28;4894971;29;5354;-69
2023/01/19 07:24:29;;;;;;;;;;;;;;;20.37;43.89;99905.09;4898310;29;4179;-69
2023/01/19 07:26:55;;;;;;;;;;;;;;;20.42;43.99;99898.06;4910427;29;4880;-70
2023/01/19 07:29:22;;;;;;;;;;;;;;;20.52;43.63;99894.75;4898834;29;4313;-70
2023/01/19 07:31:49;;;;;;;;;;;;;;;20.66;43.13;99901.00;4892499;29;4248;-70
2023/01/19 07:34:15;;;;;;;;;;;;;;;20.64;43.23;99903.81;4894404;29;4221;-71
2023/01/19 07:36:42;;;;;;;;;;;;;;;20.67;43.51;99908.19;4894615;29;5356;-67
2023/01/19 07:39:09;;;;;;;;;;;;;;;20.64;43.75;99912.44;4893747;29;4206;-67
2023/01/19 07:41:35;;;;;;;;;;;;;;;20.65;43.71;99913.88;4895162;29;6425;-67
2023/01/19 07:44:05;;;;;;;;;;;;;;;20.67;43.61;99913.94;4896305;29;4134;-66
2023/01/19 07:46:31;;;;;;;;;;;;;;;20.64;43.40;99915.31;4897310;29;4186;-68
2023/01/19 07:48:57;;;;;;;;;;;;;;;20.89;44.44;99922.53;4889482;29;4240;-69
2023/01/19 07:51:24;;;;;;;;;;;;;;;21.07;43.18;99924.44;4890871;29;4341;-70
2023/01/19 07:53:51;;;;;;;;;;;;;;;21.00;42.57;99931.44;4895294;29;4245;-69
2023/01/19 07:56:17;;;;;;;;;;;;;;;21.10;42.99;99926.72;4894199;29;4535;-70
2023/01/19 07:58:43;;;;;;;;;;;;;;;21.17;42.62;99933.38;4897197;29;5193;-70
2023/01/19 08:01:10;;;;;;;;;;;;;;;21.14;42.59;99926.06;4898372;29;6184;-68
2023/01/19 08:03:37;;;;;;;;;;;;;;;21.10;42.75;99931.75;4892613;29;5332;-69
2023/01/19 08:06:04;;;;;;;;;;;;;;;21.08;42.84;99934.56;4896463;29;4156;-67
2023/01/19 08:08:31;;;;;;;;;;;;;;;21.06;42.77;99934.50;4891815;29;4097;-69
2023/01/19 08:10:57;;;;;;;;;;;;;;;20.83;43.30;99942.47;4889032;29;4141;-68
2023/01/19 08:13:23;;;;;;;;;;;;;;;20.65;43.41;99933.28;4897160;29;4271;-68
2023/01/19 08:15:50;;;;;;;;;;;;;;;20.34;40.76;99928.69;4893945;29;5185;-71
2023/01/19 08:18:17;;;;;;;;;;;;;;;20.26;41.66;99934.94;4888919;29;4890;-73
2023/01/19 08:20:43;;;;;;;;;;;;;;;20.34;41.98;99945.94;4896752;29;4356;-70
2023/01/19 08:23:09;;;;;;;;;;;;;;;20.42;42.29;99941.19;4895735;29;4353;-69
2023/01/19 08:25:41;;;;;;;;;;;;;;;20.49;42.35;99945.72;4898949;29;5270;-72
2023/01/19 08:28:07;;;;;;;;;;;;;;;20.66;42.25;99940.50;4896387;29;4307;-70
2023/01/19 08:30:33;;;;;;;;;;;;;;;20.84;42.00;99955.44;4898755;29;4358;-68
2023/01/19 08:33:03;;;;;;;;;;;;;;;20.76;42.80;99952.34;4892310;29;4247;-65
2023/01/19 08:35:33;;;;;;;;;;;;;;;20.63;42.68;99950.50;4890850;29;5411;-67
2023/01/19 08:38:00;;;;;;;;;;;;;;;20.47;43.02;99947.81;4897477;29;4251;-65
2023/01/19 08:40:27;;;;;;;;;;;;;;;20.42;42.95;99958.44;4896946;29;4186;-65
2023/01/19 08:43:06;;;;;;;;;;;;;;;20.38;43.65;99958.31;4894571;29;4151;-65
2023/01/19 08:45:36;;;;;;;;;;;;;;;20.37;43.58;99953.97;4892501;29;5548;-65
2023/01/19 08:48:03;;;;;;;;;;;;;;;20.32;43.68;99949.50;4896473;29;4205;-65
2023/01/19 08:50:29;;;;;;;;;;;;;;;20.30;43.75;99955.94;4892163;29;5381;-65
2023/01/19 08:52:56;;;;;;;;;;;;;;;20.26;43.68;99957.94;4891803;29;4230;-65
2023/01/19 08:55:23;;;;;;;;;;;;;;;20.23;43.78;99954.25;4891711;29;5397;-65
2023/01/19 08:57:51;;;;;;;;;;;;;;;20.22;44.02;99958.53;4893769;29;4135;-65
2023/01/19 09:00:18;;;;;;;;;;;;;;;20.22;44.08;99957.78;4887742;29;4271;-64
2023/01/19 09:02:44;;;;;;;;;;;;;;;20.21;44.20;99962.09;4894232;29;4219;-64
2023/01/19 09:05:10;;;;;;;;;;;;;;;20.21;44.22;99962.81;4889966;29;4363;-65
2023/01/19 09:07:37;;;;;;;;;;;;;;;20.19;44.27;99970.63;4898612;29;4148;-64
2023/01/19 09:10:03;;;;;;;;;;;;;;;20.20;44.29;99969.22;4896275;29;4216;-64
2023/01/19 09:12:30;;;;;;;;;;;;;;;20.19;44.43;99971.38;4894683;29;4528;-67
2023/01/19 09:14:56;;;;;;;;;;;;;;;20.18;44.33;99977.78;4897507;29;4290;-65
2023/01/19 09:17:22;;;;;;;;;;;;;;;20.18;44.39;99981.41;4891509;29;5109;-67
2023/01/19 09:19:49;;;;;;;;;;;;;;;20.19;44.28;99980.00;4890664;29;4300;-63
2023/01/19 09:22:15;;;;;;;;;;;;;;;20.31;44.17;99982.53;4890753;29;4218;-69
2023/01/19 09:24:41;;;;;;;;;;;;;;;20.31;43.82;99979.66;4892174;29;4219;-66
2023/01/19 09:27:08;;;;;;;;;;;;;;;20.33;43.64;99979.72;4891324;29;4231;-68
2023/01/19 09:29:35;;;;;;;;;;;;;;;20.34;43.86;99974.69;4888664;29;4237;-65
2023/01/19 09:32:01;;;;;;;;;;;;;;;20.36;43.64;99972.63;4884304;29;4626;-68
2023/01/19 09:34:28;;;;;;;;;;;;;;;20.37;43.84;99976.97;4892954;29;5415;-67
2023/01/19 09:36:54;;;;;;;;;;;;;;;20.36;43.48;99966.88;4890434;29;4356;-64
2023/01/19 09:39:20;;;;;;;;;;;;;;;20.34;43.81;99969.72;4884049;29;4379;-63
2023/01/19 09:41:52;;;;;;;;;;;;;;;20.36;43.32;99966.88;4884559;29;5099;-67
2023/01/19 09:44:27;;;;;;;;;;;;;;;20.39;43.65;99976.31;4896499;29;4654;-65
2023/01/19 09:46:54;;;;;;;;;;;;;;;20.38;43.56;99966.94;4885785;29;4330;-65
2023/01/19 09:49:24;;;;;;;;;;;;;;;20.33;43.87;99959.59;4893511;29;4888;-68
2023/01/19 09:51:50;;;;;;;;;;;;;;;20.35;44.38;99964.69;4904429;29;4284;-70
2023/01/19 09:54:17;;;;;;;;;;;;;;;20.48;44.71;99967.28;4896030;29;4507;-75
2023/01/19 09:56:44;;;;;;;;;;;;;;;20.71;43.91;99970.88;4892430;29;5291;-73
2023/01/19 09:59:14;;;;;;;;;;;;;;;20.51;43.29;99965.94;4894400;29;4084;-68
2023/01/19 10:01:53;;;;;;;;;;;;;;;20.37;40.76;99974.09;4895931;29;4049;-70
2023/01/19 10:04:25;;;;;;;;;;;;;;;20.29;40.95;99968.09;4904442;29;4337;-73
2023/01/19 10:06:52;;;;;;;;;;;;;;;20.38;40.75;99981.31;4894223;29;6574;-69
2023/01/19 10:09:21;;;;;;;;;;;;;;;19.84;38.69;99972.38;4892529;29;4428;-73
2023/01/19 10:11:50;;;;;;;;;;;;;;;19.84;39.60;99969.50;4888307;29;4041;-73
2023/01/19 10:14:24;;;;;;;;;;;;;;;20.26;39.93;99964.41;4894572;29;4189;-80
2023/01/19 10:17:05;;;;;;;;;;;;;;;20.49;40.63;99965.13;4893749;29;4161;-79
2023/01/19 10:19:32;;;;;;;;;;;;;;;20.62;41.28;99966.28;4888114;29;4171;-79
2023/01/19 10:21:59;;;;;;;;;;;;;;;20.68;41.62;99966.47;4889253;29;6274;-79
2023/01/19 10:24:31;;;;;;;;;;;;;;;20.75;41.88;99965.22;4887475;29;4166;-79
2023/01/19 10:26:58;;;;;;;;;;;;;;;20.79;41.98;99959.59;4907072;29;5506;-79
2023/01/19 10:29:26;;;;;;;;;;;;;;;20.80;42.20;99961.09;4892189;29;4338;-78
2023/01/19 10:31:56;;;;;;;;;;;;;;;20.88;42.13;99961.31;4890353;29;4204;-76
2023/01/19 10:34:23;;;;;;;;;;;;;;;20.97;42.38;99961.56;4886785;29;4227;-76
2023/01/19 10:36:49;;;;;;;;;;;;;;;20.95;42.11;99962.25;4892166;29;4154;-80
2023/01/19 10:39:16;;;;;;;;;;;;;;;20.98;42.43;99951.53;4887552;29;5346;-81
2023/01/19 10:41:43;;;;;;;;;;;;;;;20.92;42.81;99955.69;4886000;29;4201;-74
2023/01/19 10:44:09;;;;;;;;;;;;;;;20.95;42.90;99952.88;4893498;29;5254;-72
2023/01/19 10:46:36;;;;;;;;;;;;;;;20.99;43.08;99947.25;4891563;29;4250;-71
2023/01/19 10:49:02;;;;;;;;;;;;;;;21.06;43.27;99951.78;4892466;29;4208;-73
2023/01/19 10:51:29;;;;;;;;;;;;;;;21.06;43.44;99946.00;4893232;29;5257;-71
2023/01/19 10:53:56;;;;;;;;;;;;;;;21.02;43.88;99945.88;4892121;29;4280;-72
2023/01/19 10:56:23;;;;;;;;;;;;;;;21.03;43.69;99944.50;4893589;29;4142;-72
2023/01/19 10:58:50;;;;;;;;;;;;;;;21.03;43.42;99936.59;4893271;29;5224;-73
2023/01/19 11:01:17;;;;;;;;;;;;;;;21.03;43.56;99942.34;4893085;29;4480;-75
2023/01/19 11:03:44;;;;;;;;;;;;;;;21.11;43.81;99938.94;4894601;29;4179;-78
2023/01/19 11:06:16;;;;;;;;;;;;;;;20.87;44.22;99933.25;4897818;29;4281;-78
2023/01/19 11:08:43;;;;;;;;;;;;;;;20.75;44.45;99936.47;4891992;29;4321;-69
2023/01/19 11:11:11;;;;;;;;;;;;;;;20.73;44.57;99927.03;4893072;29;4191;-71
2023/01/19 11:13:38;;;;;;;;;;;;;;;20.75;44.97;99930.72;4897049;29;4520;-71
2023/01/19 11:16:05;;;;;;;;;;;;;;;20.68;45.66;99926.94;4889608;29;5334;-72
2023/01/19 11:18:32;;;;;;;;;;;;;;;20.80;45.68;99932.31;4888267;29;4145;-75
2023/01/19 11:21:08;;;;;;;;;;;;;;;20.85;45.94;99928.16;4883931;29;4110;-75
2023/01/19 11:23:40;;;;;;;;;;;;;;;20.91;45.83;99925.47;4892994;29;4389;-74
2023/01/19 11:26:07;;;;;;;;;;;;;;;21.01;45.85;99924.28;4906117;29;4320;-72
2023/01/19 11:28:35;;;;;;;;;;;;;;;20.97;46.28;99921.28;4897281;29;4308;-72
2023/01/19 11:31:14;;;;;;;;;;;;;;;20.93;46.32;99931.25;4897614;29;4331;-71
2023/01/19 11:33:47;;;;;;;;;;;;;;;20.94;46.32;99920.50;4884444;29;4333;-79
2023/01/19 11:36:19;;;;;;;;;;;;;;;20.06;41.55;99912.75;4885571;29;4054;-68
2023/01/19 11:38:49;;;;;;;;;;;;;;;20.35;42.11;99907.19;4894134;29;4331;-72
2023/01/19 11:41:16;;;;;;;;;;;;;;;20.65;42.78;99901.66;4892836;29;4246;-69
2023/01/19 11:43:43;;;;;;;;;;;;;;;20.77;44.88;99904.88;4895180;29;4159;-71
2023/01/19 11:46:14;;;;;;;;;;;;;;;20.79;45.43;99907.09;4898756;29;4034;-73
2023/01/19 11:48:46;;;;;;;;;;;;;;;20.83;45.65;99907.22;4891726;29;4255;-71
2023/01/19 11:51:13;;;;;;;;;;;;;;;20.92;45.29;99903.91;4891472;29;4209;-71
2023/01/19 11:53:39;;;;;;;;;;;;;;;20.89;45.17;99904.50;4893595;29;4167;-68
2023/01/19 11:56:07;;;;;;;;;;;;;;;20.57;45.29;99899.28;4898042;29;4207;-69
2023/01/19 11:58:36;;;;;;;;;;;;;;;20.67;45.28;99895.97;4897607;29;4182;-73
2023/01/19 12:01:08;;;;;;;;;;;;;;;20.97;45.78;99906.91;4897314;29;4171;-73
2023/01/19 12:03:45;;;;;;;;;;;;;;;21.12;45.54;99903.00;4892611;29;4214;-77
2023/01/19 12:06:17;;;;;;;;;;;;;;;21.07;45.17;99907.16;4894608;29;4766;-80
2023/01/19 12:08:47;;;;;;;;;;;;;;;20.97;44.64;99899.00;4906528;29;4215;-71
2023/01/19 12:11:16;;;;;;;;;;;;;;;20.93;44.42;99905.34;4892054;29;4227;-69
2023/01/19 12:13:42;;;;;;;;;;;;;;;20.97;45.31;99906.91;4897829;29;4227;-69
2023/01/19 12:16:22;;;;;;;;;;;;;;;21.05;45.10;99904.22;4894328;29;4175;-73
2023/01/19 12:18:53;;;;;;;;;;;;;;;21.24;44.42;99906.22;4897513;29;5546;-72
2023/01/19 12:21:19;;;;;;;;;;;;;;;21.03;44.76;99913.56;4896753;29;5295;-65
2023/01/19 12:23:48;;;;;;;;;;;;;;;20.83;45.69;99913.69;4898548;29;4279;-67
2023/01/19 12:26:15;;;;;;;;;;;;;;;20.69;45.63;99913.28;4896448;29;4211;-68
2023/01/19 12:28:42;;;;;;;;;;;;;;;20.69;46.03;99910.41;4891253;29;4258;-67
2023/01/19 12:31:08;;;;;;;;;;;;;;;20.72;46.61;99911.94;4905478;29;4050;-67
2023/01/19 12:33:38;;;;;;;;;;;;;;;20.68;46.22;99917.56;4885151;29;4281;-69
2023/01/19 12:36:05;;;;;;;;;;;;;;;20.65;46.21;99910.28;4894670;29;4111;-69
2023/01/19 12:38:36;;;;;;;;;;;;;;;20.64;46.44;99908.81;4898505;29;4032;-65
2023/01/19 12:41:18;;;;;;;;;;;;;;;20.81;46.53;99922.28;4906101;29;4342;-69
2023/01/19 12:43:45;;;;;;;;;;;;;;;21.00;46.68;99920.66;4890855;29;5328;-70
2023/01/19 12:46:18;;;;;;;;;;;;;;;20.97;46.36;99915.53;4898125;29;4065;-66
2023/01/19 12:48:44;;;;;;;;;;;;;;;21.21;46.79;99921.97;4895865;29;4133;-69
2023/01/19 12:51:23;;;;;;;;;;;;;;;21.38;46.12;99928.19;4897660;29;4219;-68
2023/01/19 12:53:51;;;;;;;;;;;;;;;21.42;45.85;99931.22;4896696;29;4611;-68
2023/01/19 12:56:17;;;;;;;;;;;;;;;21.46;45.70;99928.41;4893893;29;4073;-67
2023/01/19 12:58:47;;;;;;;;;;;;;;;21.46;45.57;99911.91;4894775;29;5462;-67
2023/01/19 13:01:15;;;;;;;;;;;;;;;21.47;45.60;99918.38;4895281;29;4125;-67
2023/01/19 13:03:43;;;;;;;;;;;;;;;21.67;45.59;99923.94;4900857;29;4164;-66
2023/01/19 13:06:09;;;;;;;;;;;;;;;21.73;45.13;99921.22;4895056;29;4028;-68
2023/01/19 13:08:55;;;;;;;;;;;;;;;21.74;45.12;99920.53;4893423;29;5470;-66
2023/01/19 13:11:21;;;;;;;;;;;;;;;21.77;45.30;99926.34;4897977;29;4192;-65
2023/01/19 13:14:15;;;;;;;;;;;;;;;21.84;44.89;99927.97;4899471;29;4288;-65
2023/01/19 13:16:41;;;;;;;;;;;;;;;21.74;44.57;99929.19;4887773;29;4172;-68
2023/01/19 13:19:11;;;;;;;;;;;;;;;21.70;45.06;99929.06;4899420;29;4265;-68
2023/01/19 13:21:38;;;;;;;;;;;;;;;21.83;44.71;99946.66;4898019;29;4171;-66
2023/01/19 13:24:05;;;;;;;;;;;;;;;21.81;45.07;99935.84;4899746;29;5153;-65